Kinloss, United Kingdom
Current Conditions -  °F | °C
As of 12:50 AM on Saturday 29 Nov 2014 (Local Time) from EGQK Reporting Station
Broken Clouds Broken Clouds  
Wind Chill: 46°   Ceiling: 1900
Heat Index: 48°   Visibility: 6mi
Dew Point: 46°   Wind: 6mph
Humidity: 93%   Direction: 70°ENE
Pressure: 29.88"   Gusts: NA
Location:  57.64°N, 3.57°W
Report Text: EGQK 290050Z AUTO 07005KT 9999 BKN019/// 09/08 Q1012
Loading
Personal Weather Stations






























Interactive Weather Map New forecast layout! Learn more

10-Day Weather Forecast

Advertisements
Track Severe Weather on mobile